createdAt,value
2022-11-20T00:01:07.549Z,17.73
2022-11-20T00:03:34.127Z,21.60
2022-11-20T00:06:02.156Z,21.02
2022-11-20T00:08:28.602Z,16.52
2022-11-20T00:10:55.085Z,18.42
2022-11-20T00:13:21.541Z,18.35
2022-11-20T00:15:47.993Z,14.43
2022-11-20T00:18:16.645Z,19.67
2022-11-20T00:20:43.000Z,18.25
2022-11-20T00:23:09.370Z,20.65
2022-11-20T00:25:36.495Z,19.52
2022-11-20T00:28:03.024Z,21.15
2022-11-20T00:30:29.408Z,21.20
2022-11-20T00:32:57.974Z,22.15
2022-11-20T00:35:27.020Z,18.73
2022-11-20T00:37:53.522Z,15.95
2022-11-20T00:40:19.957Z,15.93
2022-11-20T00:42:46.817Z,19.05
2022-11-20T00:45:13.343Z,16.58
2022-11-20T00:47:39.799Z,19.08
2022-11-20T00:50:06.522Z,17.50
2022-11-20T00:52:32.964Z,19.42
2022-11-20T00:54:59.320Z,20.00
2022-11-20T00:57:25.725Z,23.83
2022-11-20T00:59:52.171Z,21.95
2022-11-20T01:02:18.669Z,20.23
2022-11-20T01:04:45.376Z,22.23
2022-11-20T01:07:12.178Z,24.25
2022-11-20T01:09:39.042Z,21.13
2022-11-20T01:12:05.790Z,22.30
2022-11-20T01:14:32.226Z,18.95
2022-11-20T01:16:58.735Z,21.17
2022-11-20T01:19:25.493Z,20.45
2022-11-20T01:21:54.881Z,21.92
2022-11-20T01:24:22.864Z,23.15
2022-11-20T01:26:51.337Z,21.70
2022-11-20T01:29:22.082Z,20.60
2022-11-20T01:31:48.891Z,18.92
2022-11-20T01:34:18.402Z,19.35
2022-11-20T01:36:45.604Z,17.67
2022-11-20T01:39:16.032Z,19.77
2022-11-20T01:42:05.708Z,19.15
2022-11-20T01:44:52.251Z,21.70
2022-11-20T01:47:26.461Z,17.92
2022-11-20T01:50:11.027Z,18.83
2022-11-20T01:52:54.832Z,19.92
2022-11-20T01:55:29.638Z,17.95
2022-11-20T01:57:56.448Z,19.25
2022-11-20T02:00:23.022Z,16.20
2022-11-20T02:02:54.948Z,22.63
2022-11-20T02:05:37.905Z,18.63
2022-11-20T02:08:07.055Z,16.77
2022-11-20T02:10:34.594Z,18.10
2022-11-20T02:13:19.807Z,16.70
2022-11-20T02:15:46.974Z,19.60
2022-11-20T02:18:16.508Z,16.85
2022-11-20T02:20:46.293Z,19.42
2022-11-20T02:23:27.953Z,18.25
2022-11-20T02:25:56.157Z,17.63
2022-11-20T02:28:24.244Z,18.27
2022-11-20T02:30:50.748Z,16.85
2022-11-20T02:33:17.266Z,16.33
2022-11-20T02:35:46.031Z,14.98
2022-11-20T02:38:13.812Z,17.98
2022-11-20T02:40:40.313Z,15.25
2022-11-20T02:43:06.902Z,16.15
2022-11-20T02:45:33.492Z,17.90
2022-11-20T02:47:59.945Z,16.73
2022-11-20T02:50:26.435Z,18.40
2022-11-20T02:52:55.992Z,18.63
2022-11-20T02:55:22.460Z,19.20
2022-11-20T02:57:49.001Z,13.90
2022-11-20T03:00:15.615Z,16.20
2022-11-20T03:02:42.064Z,19.65
2022-11-20T03:05:09.755Z,20.73
2022-11-20T03:07:36.390Z,16.77
2022-11-20T03:10:03.238Z,20.73
2022-11-20T03:12:29.633Z,17.38
2022-11-20T03:14:56.065Z,19.30
2022-11-20T03:17:22.809Z,19.08
2022-11-20T03:19:49.326Z,15.93
2022-11-20T03:22:15.961Z,19.48
2022-11-20T03:24:42.446Z,19.83
2022-11-20T03:27:09.096Z,19.27
2022-11-20T03:29:38.524Z,16.85
2022-11-20T03:32:05.153Z,19.70
2022-11-20T03:34:31.657Z,18.88
2022-11-20T03:36:58.318Z,20.13
2022-11-20T03:39:24.873Z,17.48
2022-11-20T03:41:51.515Z,16.20
2022-11-20T03:44:18.098Z,17.25
2022-11-20T03:46:44.621Z,19.23
2022-11-20T03:49:11.118Z,20.17
2022-11-20T03:51:37.598Z,17.67
2022-11-20T03:54:07.527Z,20.30
2022-11-20T03:56:37.242Z,20.83
2022-11-20T03:59:04.371Z,14.55
2022-11-20T04:01:33.726Z,17.25
2022-11-20T04:04:00.483Z,14.55
2022-11-20T04:06:30.295Z,17.90
2022-11-20T04:08:58.337Z,16.73
2022-11-20T04:11:26.957Z,16.92
2022-11-20T04:13:55.806Z,17.98
2022-11-20T04:16:23.640Z,18.42
2022-11-20T04:18:55.051Z,14.93
2022-11-20T04:21:21.795Z,18.63
2022-11-20T04:23:48.356Z,15.05
2022-11-20T04:26:15.051Z,20.80
2022-11-20T04:28:41.690Z,15.93
2022-11-20T04:31:11.616Z,18.63
2022-11-20T04:33:38.560Z,16.20
2022-11-20T04:36:08.268Z,17.88
2022-11-20T04:38:35.038Z,15.88
2022-11-20T04:41:03.848Z,15.73
2022-11-20T04:43:31.432Z,14.70
2022-11-20T04:45:59.361Z,16.73
2022-11-20T04:48:27.573Z,15.48
2022-11-20T04:50:54.672Z,17.08
2022-11-20T04:53:22.227Z,18.25
2022-11-20T04:55:48.705Z,16.30
2022-11-20T04:58:16.084Z,17.42
2022-11-20T05:00:42.622Z,16.23
2022-11-20T05:03:09.131Z,16.55
2022-11-20T05:05:36.020Z,16.45
2022-11-20T05:08:02.917Z,16.30
2022-11-20T05:10:30.284Z,17.02
2022-11-20T05:12:58.200Z,18.92
2022-11-20T05:15:25.043Z,17.88
2022-11-20T05:17:53.205Z,17.30
2022-11-20T05:20:20.354Z,18.02
2022-11-20T05:22:46.864Z,15.60
2022-11-20T05:25:13.749Z,14.65
2022-11-20T05:27:40.325Z,15.48
2022-11-20T05:30:07.812Z,15.23
2022-11-20T05:32:34.301Z,17.73
2022-11-20T05:35:00.867Z,17.80
2022-11-20T05:37:27.462Z,15.82
2022-11-20T05:39:53.880Z,18.38
2022-11-20T05:42:32.453Z,17.50
2022-11-20T05:45:00.260Z,17.08
2022-11-20T05:47:34.417Z,16.27
2022-11-20T05:50:01.493Z,19.48
2022-11-20T05:52:31.479Z,17.75
2022-11-20T05:54:58.162Z,16.90
2022-11-20T05:57:24.721Z,17.45
2022-11-20T05:59:51.202Z,15.98
2022-11-20T06:02:17.684Z,17.55
2022-11-20T06:04:44.252Z,16.55
2022-11-20T06:07:11.279Z,13.95
2022-11-20T06:09:37.824Z,16.27
2022-11-20T06:12:04.549Z,15.82
2022-11-20T06:14:30.961Z,14.85
2022-11-20T06:16:57.669Z,12.95
2022-11-20T06:19:24.159Z,16.42
2022-11-20T06:21:50.829Z,15.40
2022-11-20T06:24:17.954Z,16.42
2022-11-20T06:26:44.844Z,14.80
2022-11-20T06:29:14.605Z,16.13
2022-11-20T06:31:43.915Z,15.32
2022-11-20T06:34:10.433Z,15.60
2022-11-20T06:36:37.176Z,17.85
2022-11-20T06:39:03.978Z,16.38
2022-11-20T06:41:30.547Z,16.92
2022-11-20T06:43:56.975Z,15.73
2022-11-20T06:46:23.716Z,17.98
2022-11-20T06:48:51.337Z,15.63
2022-11-20T06:51:18.226Z,16.52
2022-11-20T06:53:44.710Z,16.27
2022-11-20T06:56:11.157Z,15.88
2022-11-20T06:58:37.962Z,15.80
2022-11-20T07:01:11.540Z,15.45
2022-11-20T07:03:38.824Z,17.90
2022-11-20T07:06:05.872Z,15.15
2022-11-20T07:08:33.005Z,19.40
2022-11-20T07:11:05.844Z,17.77
2022-11-20T07:13:33.100Z,20.08
2022-11-20T07:16:06.555Z,16.95
2022-11-20T07:18:33.174Z,19.10
2022-11-20T07:21:03.912Z,15.70
2022-11-20T07:23:30.402Z,18.20
2022-11-20T07:25:56.856Z,16.98
2022-11-20T07:28:23.508Z,18.33
2022-11-20T07:30:54.229Z,16.27
2022-11-20T07:33:21.013Z,16.77
2022-11-20T07:35:47.556Z,18.05
2022-11-20T07:38:14.151Z,14.50
2022-11-20T07:40:40.581Z,17.45
2022-11-20T07:43:07.345Z,17.20
2022-11-20T07:45:33.796Z,19.02
2022-11-20T07:48:00.325Z,24.15
2022-11-20T07:50:26.871Z,20.85
2022-11-20T07:52:53.567Z,26.05
2022-11-20T07:55:19.939Z,22.08
2022-11-20T07:57:46.474Z,18.35
2022-11-20T08:00:13.741Z,17.60
2022-11-20T08:02:41.524Z,17.50
2022-11-20T08:05:12.215Z,21.88
2022-11-20T08:07:43.030Z,17.17
2022-11-20T08:10:12.040Z,18.83
2022-11-20T08:13:07.133Z,19.75
2022-11-20T08:15:34.009Z,21.13
2022-11-20T08:18:30.023Z,21.30
2022-11-20T08:20:54.646Z,22.75
2022-11-20T08:23:21.083Z,26.90
2022-11-20T08:25:50.996Z,23.50
2022-11-20T08:28:21.221Z,24.45
2022-11-20T08:30:48.485Z,22.35
2022-11-20T08:33:24.705Z,21.75
2022-11-20T08:35:51.070Z,24.02
2022-11-20T08:38:17.859Z,23.33
2022-11-20T08:41:07.087Z,23.63
2022-11-20T08:43:33.550Z,20.80
2022-11-20T08:46:00.005Z,25.60
2022-11-20T08:48:26.465Z,24.83
2022-11-20T08:50:52.855Z,21.58
2022-11-20T08:53:19.255Z,22.90
2022-11-20T08:55:45.656Z,25.23
2022-11-20T08:58:12.275Z,22.83
2022-11-20T09:00:38.711Z,24.25
2022-11-20T09:03:05.394Z,28.48
2022-11-20T09:05:31.891Z,22.60
2022-11-20T09:07:59.243Z,22.73
2022-11-20T09:10:28.526Z,21.60
2022-11-20T09:12:58.684Z,22.88
2022-11-20T09:15:26.406Z,28.70
2022-11-20T09:17:53.471Z,26.67
2022-11-20T09:20:20.682Z,21.38
2022-11-20T09:22:47.372Z,20.17
2022-11-20T09:25:13.772Z,22.38
2022-11-20T09:27:42.298Z,25.83
2022-11-20T09:30:09.169Z,21.30
2022-11-20T09:32:35.602Z,29.92
2022-11-20T09:35:02.202Z,30.45
2022-11-20T09:37:29.427Z,23.20
2022-11-20T09:39:55.784Z,26.75
2022-11-20T09:42:45.627Z,25.98
2022-11-20T09:45:24.159Z,24.50
2022-11-20T09:47:56.486Z,25.40
2022-11-20T09:50:44.806Z,25.80
2022-11-20T09:53:20.528Z,27.17
2022-11-20T09:55:47.510Z,26.50
2022-11-20T09:58:26.540Z,24.83
2022-11-20T10:00:57.230Z,23.67
2022-11-20T10:03:38.705Z,22.90
2022-11-20T10:06:13.144Z,24.65
2022-11-20T10:08:50.089Z,23.60
2022-11-20T10:11:42.696Z,24.38
2022-11-20T10:14:41.524Z,26.35
2022-11-20T10:17:33.095Z,25.02
2022-11-20T10:20:17.184Z,28.42
2022-11-20T10:22:55.373Z,31.23
2022-11-20T10:25:34.795Z,31.70
2022-11-20T10:28:38.799Z,30.17
2022-11-20T10:31:12.020Z,26.17
2022-11-20T10:34:10.535Z,31.50
2022-11-20T10:36:37.732Z,26.45
2022-11-20T10:39:29.938Z,24.08
2022-11-20T10:41:57.566Z,25.92
2022-11-20T10:44:47.462Z,25.77
2022-11-20T10:47:16.910Z,25.40
2022-11-20T10:49:46.378Z,26.50
2022-11-20T10:52:50.286Z,25.77
2022-11-20T10:55:31.989Z,24.08
2022-11-20T10:58:08.757Z,26.55
2022-11-20T11:00:35.434Z,26.35
2022-11-20T11:03:04.776Z,28.40
2022-11-20T11:05:31.141Z,26.75
2022-11-20T11:07:59.641Z,30.73
2022-11-20T11:10:37.096Z,28.42
2022-11-20T11:15:31.125Z,29.38
2022-11-20T11:17:57.797Z,29.75
2022-11-20T11:20:26.751Z,27.48
2022-11-20T11:22:59.057Z,28.40
2022-11-20T11:25:27.299Z,28.45
2022-11-20T11:27:57.079Z,28.65
2022-11-20T11:30:25.278Z,29.35
2022-11-20T11:32:51.881Z,32.20
2022-11-20T11:35:22.845Z,30.75
2022-11-20T11:37:50.057Z,34.58
2022-11-20T11:40:26.191Z,28.88
2022-11-20T11:43:02.161Z,31.00
2022-11-20T11:45:31.682Z,31.63
2022-11-20T11:48:04.580Z,32.45
2022-11-20T11:50:32.598Z,29.88
2022-11-20T11:53:13.082Z,30.98
2022-11-20T11:56:04.939Z,31.23
2022-11-20T11:58:52.942Z,35.15
2022-11-20T12:01:35.103Z,33.90
2022-11-20T12:04:13.891Z,38.35
2022-11-20T12:06:45.100Z,32.65
2022-11-20T12:11:52.104Z,32.30
2022-11-20T12:14:25.115Z,30.75
2022-11-20T12:16:54.194Z,34.20
2022-11-20T12:19:21.283Z,35.40
2022-11-20T12:21:58.483Z,38.70
2022-11-20T12:24:54.407Z,40.33
2022-11-20T12:27:36.685Z,45.95
2022-11-20T12:30:09.711Z,33.03
2022-11-20T12:32:43.863Z,29.45
2022-11-20T12:35:30.325Z,32.05
2022-11-20T12:38:30.727Z,30.42
2022-11-20T12:41:12.426Z,33.90
2022-11-20T12:44:21.872Z,28.93
2022-11-20T12:46:59.105Z,32.13
2022-11-20T12:49:39.010Z,28.95
2022-11-20T12:52:17.704Z,32.90
2022-11-20T12:54:57.796Z,30.38
2022-11-20T12:57:57.435Z,35.97
2022-11-20T13:00:25.921Z,30.38
2022-11-20T13:03:22.984Z,30.65
2022-11-20T13:06:07.576Z,28.63
2022-11-20T13:08:37.711Z,30.92
2022-11-20T13:11:19.104Z,38.58
2022-11-20T13:14:04.487Z,37.25
2022-11-20T13:17:03.347Z,32.90
2022-11-20T13:19:33.267Z,32.50
2022-11-20T13:21:59.903Z,33.67
2022-11-20T13:24:31.237Z,36.83
2022-11-20T13:27:08.496Z,31.77
2022-11-20T13:29:37.225Z,32.75
2022-11-20T13:32:08.372Z,35.15
2022-11-20T13:34:37.000Z,30.95
2022-11-20T13:37:04.915Z,37.22
2022-11-20T13:39:34.111Z,32.15
2022-11-20T13:42:24.546Z,32.60
2022-11-20T13:45:04.096Z,33.97
2022-11-20T13:47:30.800Z,34.53
2022-11-20T13:50:00.388Z,34.38
2022-11-20T13:52:36.110Z,32.92
2022-11-20T13:55:08.754Z,31.63
2022-11-20T13:57:53.348Z,37.47
2022-11-20T14:00:22.625Z,34.88
2022-11-20T14:03:07.264Z,35.85
2022-11-20T14:05:49.490Z,34.78
2022-11-20T14:08:29.266Z,36.22
2022-11-20T14:11:28.140Z,37.22
2022-11-20T14:13:59.708Z,37.20
2022-11-20T14:16:31.341Z,36.05
2022-11-20T14:18:59.492Z,40.28
2022-11-20T14:21:28.749Z,37.10
2022-11-20T14:24:18.883Z,34.13
2022-11-20T14:26:54.728Z,37.05
2022-11-20T14:29:36.815Z,34.35
2022-11-20T14:32:04.708Z,38.33
2022-11-20T14:34:33.806Z,40.53
2022-11-20T14:37:04.421Z,38.20
2022-11-20T14:39:36.894Z,32.35
2022-11-20T14:42:17.912Z,34.88
2022-11-20T14:44:47.542Z,33.08
2022-11-20T14:47:25.631Z,33.67
2022-11-20T14:49:56.773Z,36.08
2022-11-20T14:55:02.997Z,31.73
2022-11-20T14:57:29.911Z,27.20
2022-11-20T15:00:25.702Z,32.20
2022-11-20T15:02:53.318Z,39.85
2022-11-20T15:05:52.135Z,35.13
2022-11-20T15:08:34.603Z,34.30
2022-11-20T15:11:18.447Z,36.28
2022-11-20T15:13:48.437Z,34.72
2022-11-20T15:16:20.737Z,35.80
2022-11-20T15:18:48.443Z,37.67
2022-11-20T15:21:17.422Z,40.13
2022-11-20T15:23:44.540Z,39.42
2022-11-20T15:26:19.677Z,42.90
2022-11-20T15:28:48.772Z,35.42
2022-11-20T15:31:18.708Z,39.85
2022-11-20T15:33:45.603Z,35.97
2022-11-20T15:36:11.981Z,38.90
2022-11-20T15:38:38.374Z,38.97
2022-11-20T15:41:05.596Z,41.65
2022-11-20T15:43:32.344Z,38.58
2022-11-20T15:46:07.298Z,35.67
2022-11-20T15:48:46.216Z,42.25
2022-11-20T15:51:22.837Z,36.03
2022-11-20T15:53:49.417Z,50.05
2022-11-20T15:56:15.985Z,42.20
2022-11-20T15:58:42.964Z,36.40
2022-11-20T16:01:15.053Z,35.42
2022-11-20T16:03:42.263Z,42.05
2022-11-20T16:06:08.972Z,34.33
2022-11-20T16:08:35.447Z,32.58
2022-11-20T16:11:02.479Z,39.33
2022-11-20T16:13:47.238Z,33.63
2022-11-20T16:16:38.651Z,34.95
2022-11-20T16:19:05.203Z,34.75
2022-11-20T16:21:32.054Z,33.38
2022-11-20T16:24:05.017Z,34.92
2022-11-20T16:26:32.224Z,36.42
2022-11-20T16:29:08.487Z,33.00
2022-11-20T16:31:35.046Z,38.33
2022-11-20T16:34:10.031Z,38.72
2022-11-20T16:36:40.937Z,37.33
2022-11-20T16:39:07.370Z,37.30
2022-11-20T16:41:35.071Z,35.17
2022-11-20T16:44:03.501Z,46.03
2022-11-20T16:46:32.195Z,35.06
2022-11-20T16:49:04.975Z,37.28
2022-11-20T16:51:34.915Z,38.25
2022-11-20T16:54:06.281Z,46.35
2022-11-20T16:56:32.838Z,42.78
2022-11-20T16:59:00.711Z,36.63
2022-11-20T17:01:28.848Z,38.50
2022-11-20T17:03:55.318Z,32.17
2022-11-20T17:06:24.343Z,43.40
2022-11-20T17:08:50.738Z,35.50
2022-11-20T17:11:19.595Z,34.28
2022-11-20T17:13:46.906Z,29.40
2022-11-20T17:16:16.456Z,38.38
2022-11-20T17:18:44.349Z,34.63
2022-11-20T17:21:11.754Z,43.05
2022-11-20T17:23:40.513Z,34.08
2022-11-20T17:26:08.291Z,33.05
2022-11-20T17:28:35.824Z,34.38
2022-11-20T17:31:04.513Z,32.90
2022-11-20T17:33:30.990Z,42.88
2022-11-20T17:35:57.985Z,35.05
2022-11-20T17:38:24.811Z,36.30
2022-11-20T17:40:54.367Z,38.45
2022-11-20T17:43:20.802Z,40.40
2022-11-20T17:45:47.385Z,38.42
2022-11-20T17:48:14.143Z,35.67
2022-11-20T17:50:40.682Z,38.60
2022-11-20T17:53:07.585Z,39.47
2022-11-20T17:55:55.817Z,32.58
2022-11-20T17:58:22.651Z,36.65
2022-11-20T18:00:49.162Z,38.95
2022-11-20T18:03:15.767Z,48.53
2022-11-20T18:05:42.263Z,46.92
2022-11-20T18:08:08.950Z,35.45
2022-11-20T18:10:35.548Z,39.58
2022-11-20T18:13:02.006Z,38.42
2022-11-20T18:15:28.947Z,36.40
2022-11-20T18:17:56.760Z,37.65
2022-11-20T18:20:34.011Z,39.53
2022-11-20T18:23:03.124Z,39.00
2022-11-20T18:25:29.680Z,40.30
2022-11-20T18:27:56.554Z,33.20
2022-11-20T18:30:30.788Z,36.45
2022-11-20T18:33:00.492Z,36.05
2022-11-20T18:35:27.485Z,33.78
2022-11-20T18:37:54.594Z,31.05
2022-11-20T18:40:21.528Z,36.45
2022-11-20T18:43:06.864Z,34.88
2022-11-20T18:45:33.698Z,35.10
2022-11-20T18:48:00.518Z,33.58
2022-11-20T18:50:27.306Z,35.85
2022-11-20T18:52:54.239Z,34.53
2022-11-20T18:55:24.432Z,33.72
2022-11-20T18:57:51.364Z,33.05
2022-11-20T19:00:18.381Z,34.72
2022-11-20T19:02:51.436Z,35.60
2022-11-20T19:05:18.345Z,29.02
2022-11-20T19:07:45.257Z,32.03
2022-11-20T19:10:13.711Z,33.97
2022-11-20T19:12:40.480Z,36.53
2022-11-20T19:15:07.636Z,38.33
2022-11-20T19:17:34.648Z,36.15
2022-11-20T19:20:01.444Z,32.53
2022-11-20T19:22:28.276Z,36.13
2022-11-20T19:24:55.049Z,36.78
2022-11-20T19:27:21.953Z,34.28
2022-11-20T19:29:48.939Z,35.67
2022-11-20T19:32:16.507Z,35.97
2022-11-20T19:34:43.718Z,39.33
2022-11-20T19:37:10.641Z,32.72
2022-11-20T19:39:37.631Z,34.95
2022-11-20T19:42:04.424Z,35.28
2022-11-20T19:44:33.136Z,35.00
2022-11-20T19:47:00.599Z,38.72
2022-11-20T19:49:27.417Z,34.67
2022-11-20T19:51:54.200Z,37.83
2022-11-20T19:54:23.563Z,34.88
2022-11-20T19:56:50.803Z,41.30
2022-11-20T19:59:17.739Z,37.67
2022-11-20T20:01:44.803Z,30.35
2022-11-20T20:04:11.704Z,43.50
2022-11-20T20:06:40.221Z,35.15
2022-11-20T20:09:16.415Z,33.80
2022-11-20T20:11:46.773Z,35.75
2022-11-20T20:14:32.836Z,46.75
2022-11-20T20:17:20.062Z,35.50
2022-11-20T20:20:07.051Z,33.47
2022-11-20T20:23:15.502Z,34.30
2022-11-20T20:33:30.247Z,33.90
2022-11-20T20:36:02.812Z,33.47
